sensor_id;sensor_type;location;lat;lon;timestamp;pressure;altitude;pressure_sealevel;temperature;humidity
64253;BME280;50592;52.958;-7.470;2022-12-29T00:01:50;97791.78;;;5.73;100.00
64253;BME280;50592;52.958;-7.470;2022-12-29T00:04:17;97801.28;;;5.74;100.00
64253;BME280;50592;52.958;-7.470;2022-12-29T00:06:43;97798.66;;;5.74;100.00
64253;BME280;50592;52.958;-7.470;2022-12-29T00:09:12;97791.25;;;5.77;100.00
64253;BME280;50592;52.958;-7.470;2022-12-29T00:11:39;97800.31;;;5.75;100.00
64253;BME280;50592;52.958;-7.470;2022-12-29T00:14:05;97812.59;;;5.74;100.00
64253;BME280;50592;52.958;-7.470;2022-12-29T00:17:03;97814.38;;;5.74;100.00
64253;BME280;50592;52.958;-7.470;2022-12-29T00:19:30;97815.22;;;5.74;100.00
64253;BME280;50592;52.958;-7.470;2022-12-29T00:22:15;97824.06;;;5.73;100.00
64253;BME280;50592;52.958;-7.470;2022-12-29T00:25:00;97826.69;;;5.73;100.00
64253;BME280;50592;52.958;-7.470;2022-12-29T00:27:44;97827.84;;;5.70;100.00
64253;BME280;50592;52.958;-7.470;2022-12-29T00:30:29;97825.41;;;5.69;100.00
64253;BME280;50592;52.958;-7.470;2022-12-29T00:33:18;97822.16;;;5.67;100.00
64253;BME280;50592;52.958;-7.470;2022-12-29T00:36:16;97824.78;;;5.67;100.00
64253;BME280;50592;52.958;-7.470;2022-12-29T00:39:12;97813.84;;;5.63;100.00
64253;BME280;50592;52.958;-7.470;2022-12-29T00:42:06;97819.06;;;5.63;100.00
64253;BME280;50592;52.958;-7.470;2022-12-29T00:44:51;97824.66;;;5.60;100.00
64253;BME280;50592;52.958;-7.470;2022-12-29T00:47:17;97827.47;;;5.58;100.00
64253;BME280;50592;52.958;-7.470;2022-12-29T00:49:42;97831.88;;;5.58;100.00
64253;BME280;50592;52.958;-7.470;2022-12-29T00:52:11;97835.34;;;5.58;100.00
64253;BME280;50592;52.958;-7.470;2022-12-29T00:54:38;97829.25;;;5.58;100.00
64253;BME280;50592;52.958;-7.470;2022-12-29T00:57:07;97835.50;;;5.57;100.00
64253;BME280;50592;52.958;-7.470;2022-12-29T00:59:37;97841.53;;;5.57;100.00
64253;BME280;50592;52.958;-7.470;2022-12-29T01:02:03;97839.44;;;5.53;100.00
64253;BME280;50592;52.958;-7.470;2022-12-29T01:04:29;97845.88;;;5.50;100.00
64253;BME280;50592;52.958;-7.470;2022-12-29T01:06:55;97846.03;;;5.49;100.00
64253;BME280;50592;52.958;-7.470;2022-12-29T01:09:21;97847.03;;;5.48;100.00
64253;BME280;50592;52.958;-7.470;2022-12-29T01:12:07;97844.59;;;5.46;100.00
64253;BME280;50592;52.958;-7.470;2022-12-29T01:14:35;97849.03;;;5.45;100.00
64253;BME280;50592;52.958;-7.470;2022-12-29T01:17:03;97859.50;;;5.45;100.00
64253;BME280;50592;52.958;-7.470;2022-12-29T01:19:29;97860.69;;;5.43;100.00
64253;BME280;50592;52.958;-7.470;2022-12-29T01:21:55;97868.72;;;5.41;100.00
64253;BME280;50592;52.958;-7.470;2022-12-29T01:24:21;97864.91;;;5.44;100.00
64253;BME280;50592;52.958;-7.470;2022-12-29T01:26:48;97878.84;;;5.44;100.00
64253;BME280;50592;52.958;-7.470;2022-12-29T01:29:16;97878.66;;;5.46;100.00
64253;BME280;50592;52.958;-7.470;2022-12-29T01:31:44;97879.63;;;5.45;100.00
64253;BME280;50592;52.958;-7.470;2022-12-29T01:34:10;97870.97;;;5.44;100.00
64253;BME280;50592;52.958;-7.470;2022-12-29T01:36:37;97884.88;;;5.45;100.00
64253;BME280;50592;52.958;-7.470;2022-12-29T01:39:03;97887.50;;;5.45;100.00
64253;BME280;50592;52.958;-7.470;2022-12-29T01:41:29;97899.63;;;5.46;100.00
64253;BME280;50592;52.958;-7.470;2022-12-29T01:43:57;97896.00;;;5.47;100.00
64253;BME280;50592;52.958;-7.470;2022-12-29T01:46:38;97907.47;;;5.46;100.00
64253;BME280;50592;52.958;-7.470;2022-12-29T01:51:38;97920.41;;;5.48;100.00
64253;BME280;50592;52.958;-7.470;2022-12-29T01:54:08;97927.44;;;5.47;100.00
64253;BME280;50592;52.958;-7.470;2022-12-29T01:56:36;97926.97;;;5.43;100.00
64253;BME280;50592;52.958;-7.470;2022-12-29T01:59:10;97921.56;;;5.45;100.00
64253;BME280;50592;52.958;-7.470;2022-12-29T02:01:37;97930.75;;;5.41;100.00
64253;BME280;50592;52.958;-7.470;2022-12-29T02:04:04;97940.25;;;5.42;100.00
64253;BME280;50592;52.958;-7.470;2022-12-29T02:07:04;97944.97;;;5.46;100.00
64253;BME280;50592;52.958;-7.470;2022-12-29T02:09:29;97947.75;;;5.45;100.00
64253;BME280;50592;52.958;-7.470;2022-12-29T02:11:56;97956.75;;;5.51;100.00
64253;BME280;50592;52.958;-7.470;2022-12-29T02:14:23;97958.88;;;5.47;100.00
64253;BME280;50592;52.958;-7.470;2022-12-29T02:31:03;97973.69;;;5.63;100.00
64253;BME280;50592;52.958;-7.470;2022-12-29T02:36:28;97986.94;;;5.70;100.00
64253;BME280;50592;52.958;-7.470;2022-12-29T02:44:56;98001.25;;;5.82;100.00
64253;BME280;50592;52.958;-7.470;2022-12-29T02:47:36;98004.84;;;5.81;100.00
64253;BME280;50592;52.958;-7.470;2022-12-29T02:50:25;98014.38;;;5.82;100.00
64253;BME280;50592;52.958;-7.470;2022-12-29T02:53:05;98014.38;;;5.82;100.00
64253;BME280;50592;52.958;-7.470;2022-12-29T02:55:33;98011.56;;;5.84;100.00
64253;BME280;50592;52.958;-7.470;2022-12-29T03:00:40;98033.50;;;5.83;100.00
64253;BME280;50592;52.958;-7.470;2022-12-29T03:11:14;98052.78;;;5.67;100.00
64253;BME280;50592;52.958;-7.470;2022-12-29T03:14:14;98054.59;;;5.66;100.00
64253;BME280;50592;52.958;-7.470;2022-12-29T03:17:24;98044.94;;;5.67;100.00
64253;BME280;50592;52.958;-7.470;2022-12-29T03:19:57;98065.25;;;5.65;100.00
64253;BME280;50592;52.958;-7.470;2022-12-29T03:22:29;98081.63;;;5.67;100.00
64253;BME280;50592;52.958;-7.470;2022-12-29T03:25:21;98090.28;;;5.67;100.00
64253;BME280;50592;52.958;-7.470;2022-12-29T03:28:05;98100.63;;;5.61;100.00
64253;BME280;50592;52.958;-7.470;2022-12-29T03:30:39;98085.31;;;5.49;100.00
64253;BME280;50592;52.958;-7.470;2022-12-29T03:33:12;98084.97;;;5.44;100.00
64253;BME280;50592;52.958;-7.470;2022-12-29T03:35:42;98084.03;;;5.37;100.00
64253;BME280;50592;52.958;-7.470;2022-12-29T03:38:16;98093.03;;;5.34;100.00
64253;BME280;50592;52.958;-7.470;2022-12-29T03:40:49;98081.28;;;5.30;100.00
64253;BME280;50592;52.958;-7.470;2022-12-29T03:43:16;98080.94;;;5.25;100.00
64253;BME280;50592;52.958;-7.470;2022-12-29T03:45:43;98078.66;;;5.21;100.00
64253;BME280;50592;52.958;-7.470;2022-12-29T03:48:09;98081.28;;;5.21;100.00
64253;BME280;50592;52.958;-7.470;2022-12-29T03:50:40;98079.50;;;5.22;100.00
64253;BME280;50592;52.958;-7.470;2022-12-29T03:53:06;98079.84;;;5.19;100.00
64253;BME280;50592;52.958;-7.470;2022-12-29T03:55:33;98073.78;;;5.18;100.00
64253;BME280;50592;52.958;-7.470;2022-12-29T03:57:59;98090.47;;;5.17;100.00
64253;BME280;50592;52.958;-7.470;2022-12-29T04:00:46;98104.19;;;5.19;100.00
64253;BME280;50592;52.958;-7.470;2022-12-29T04:03:12;98088.16;;;5.22;100.00
64253;BME280;50592;52.958;-7.470;2022-12-29T04:05:37;98091.59;;;5.23;100.00
64253;BME280;50592;52.958;-7.470;2022-12-29T04:08:04;98093.56;;;5.21;100.00
64253;BME280;50592;52.958;-7.470;2022-12-29T04:10:30;98096.34;;;5.19;100.00
64253;BME280;50592;52.958;-7.470;2022-12-29T04:12:59;98101.13;;;5.16;100.00
64253;BME280;50592;52.958;-7.470;2022-12-29T04:15:25;98099.81;;;5.12;100.00
64253;BME280;50592;52.958;-7.470;2022-12-29T04:17:52;98110.63;;;5.08;100.00
64253;BME280;50592;52.958;-7.470;2022-12-29T04:20:18;98100.47;;;5.05;100.00
64253;BME280;50592;52.958;-7.470;2022-12-29T04:23:06;98103.75;;;5.07;100.00
64253;BME280;50592;52.958;-7.470;2022-12-29T04:25:33;98099.66;;;5.05;100.00
64253;BME280;50592;52.958;-7.470;2022-12-29T04:28:00;98123.22;;;5.05;100.00
64253;BME280;50592;52.958;-7.470;2022-12-29T04:30:50;98131.72;;;5.07;100.00
64253;BME280;50592;52.958;-7.470;2022-12-29T04:33:22;98122.25;;;5.06;100.00
64253;BME280;50592;52.958;-7.470;2022-12-29T04:35:48;98121.25;;;5.07;100.00
64253;BME280;50592;52.958;-7.470;2022-12-29T04:38:14;98106.72;;;5.04;100.00
64253;BME280;50592;52.958;-7.470;2022-12-29T04:40:42;98119.78;;;5.04;100.00
64253;BME280;50592;52.958;-7.470;2022-12-29T04:43:10;98110.63;;;5.00;100.00
64253;BME280;50592;52.958;-7.470;2022-12-29T04:45:54;98110.78;;;4.99;100.00
64253;BME280;50592;52.958;-7.470;2022-12-29T04:48:27;98109.34;;;4.96;100.00
64253;BME280;50592;52.958;-7.470;2022-12-29T04:51:10;98096.25;;;4.96;100.00
64253;BME280;50592;52.958;-7.470;2022-12-29T04:53:38;98112.78;;;4.96;100.00
64253;BME280;50592;52.958;-7.470;2022-12-29T04:56:04;98107.72;;;4.95;100.00
64253;BME280;50592;52.958;-7.470;2022-12-29T04:58:31;98110.00;;;4.98;100.00
64253;BME280;50592;52.958;-7.470;2022-12-29T05:00:58;98111.63;;;4.99;100.00
64253;BME280;50592;52.958;-7.470;2022-12-29T05:03:27;98133.84;;;5.03;100.00
64253;BME280;50592;52.958;-7.470;2022-12-29T05:05:54;98119.47;;;5.07;100.00
64253;BME280;50592;52.958;-7.470;2022-12-29T05:08:21;98119.78;;;5.04;100.00
64253;BME280;50592;52.958;-7.470;2022-12-29T05:10:47;98129.44;;;5.04;100.00
64253;BME280;50592;52.958;-7.470;2022-12-29T05:13:17;98143.38;;;5.04;100.00
64253;BME280;50592;52.958;-7.470;2022-12-29T05:15:49;98135.00;;;5.09;100.00
64253;BME280;50592;52.958;-7.470;2022-12-29T05:18:15;98144.31;;;5.03;100.00
64253;BME280;50592;52.958;-7.470;2022-12-29T05:20:41;98147.28;;;5.00;100.00
64253;BME280;50592;52.958;-7.470;2022-12-29T05:23:07;98148.59;;;4.96;100.00
64253;BME280;50592;52.958;-7.470;2022-12-29T05:25:33;98141.41;;;4.90;100.00
64253;BME280;50592;52.958;-7.470;2022-12-29T05:28:19;98135.03;;;4.84;100.00
64253;BME280;50592;52.958;-7.470;2022-12-29T05:30:53;98148.13;;;4.84;100.00
64253;BME280;50592;52.958;-7.470;2022-12-29T05:33:19;98136.84;;;4.83;100.00
64253;BME280;50592;52.958;-7.470;2022-12-29T05:35:46;98139.94;;;4.87;100.00
64253;BME280;50592;52.958;-7.470;2022-12-29T05:38:13;98146.97;;;4.87;100.00
64253;BME280;50592;52.958;-7.470;2022-12-29T05:40:39;98152.53;;;4.83;100.00
64253;BME280;50592;52.958;-7.470;2022-12-29T05:43:14;98148.94;;;4.84;100.00
64253;BME280;50592;52.958;-7.470;2022-12-29T05:46:01;98155.97;;;4.84;100.00
64253;BME280;50592;52.958;-7.470;2022-12-29T05:48:53;98156.78;;;4.84;100.00
64253;BME280;50592;52.958;-7.470;2022-12-29T05:51:24;98145.19;;;4.79;100.00
64253;BME280;50592;52.958;-7.470;2022-12-29T05:53:52;98166.59;;;4.74;100.00
64253;BME280;50592;52.958;-7.470;2022-12-29T05:56:18;98173.31;;;4.77;100.00
64253;BME280;50592;52.958;-7.470;2022-12-29T05:58:51;98180.81;;;4.80;100.00
64253;BME280;50592;52.958;-7.470;2022-12-29T06:01:16;98189.50;;;4.80;100.00
64253;BME280;50592;52.958;-7.470;2022-12-29T06:03:44;98182.81;;;4.78;100.00
64253;BME280;50592;52.958;-7.470;2022-12-29T06:06:10;98178.53;;;4.77;100.00
64253;BME280;50592;52.958;-7.470;2022-12-29T06:08:36;98185.56;;;4.76;100.00
64253;BME280;50592;52.958;-7.470;2022-12-29T06:11:02;98181.66;;;4.72;100.00
64253;BME280;50592;52.958;-7.470;2022-12-29T06:13:28;98176.56;;;4.70;100.00
64253;BME280;50592;52.958;-7.470;2022-12-29T06:15:55;98173.13;;;4.70;100.00
64253;BME280;50592;52.958;-7.470;2022-12-29T06:18:21;98170.50;;;4.70;100.00
64253;BME280;50592;52.958;-7.470;2022-12-29T06:20:47;98176.56;;;4.70;100.00
64253;BME280;50592;52.958;-7.470;2022-12-29T06:23:15;98181.31;;;4.67;100.00
64253;BME280;50592;52.958;-7.470;2022-12-29T06:25:42;98175.28;;;4.66;100.00
64253;BME280;50592;52.958;-7.470;2022-12-29T06:28:07;98175.13;;;4.68;100.00
64253;BME280;50592;52.958;-7.470;2022-12-29T06:30:36;98183.94;;;4.67;100.00
64253;BME280;50592;52.958;-7.470;2022-12-29T06:33:02;98186.38;;;4.60;100.00
64253;BME280;50592;52.958;-7.470;2022-12-29T06:35:28;98190.13;;;4.57;100.00
64253;BME280;50592;52.958;-7.470;2022-12-29T06:37:54;98193.41;;;4.51;100.00
64253;BME280;50592;52.958;-7.470;2022-12-29T06:40:19;98199.63;;;4.50;100.00
64253;BME280;50592;52.958;-7.470;2022-12-29T06:43:08;98196.66;;;4.45;100.00
64253;BME280;50592;52.958;-7.470;2022-12-29T06:45:52;98187.19;;;4.44;100.00
64253;BME280;50592;52.958;-7.470;2022-12-29T06:48:18;98201.56;;;4.48;100.00
64253;BME280;50592;52.958;-7.470;2022-12-29T06:50:44;98210.25;;;4.49;100.00
64253;BME280;50592;52.958;-7.470;2022-12-29T06:53:09;98214.16;;;4.53;100.00
64253;BME280;50592;52.958;-7.470;2022-12-29T06:55:36;98220.06;;;4.55;100.00
64253;BME280;50592;52.958;-7.470;2022-12-29T06:58:02;98235.91;;;4.53;100.00
64253;BME280;50592;52.958;-7.470;2022-12-29T07:00:27;98240.28;;;4.44;100.00
64253;BME280;50592;52.958;-7.470;2022-12-29T07:02:55;98246.66;;;4.33;100.00
64253;BME280;50592;52.958;-7.470;2022-12-29T07:05:21;98244.97;;;4.24;100.00
64253;BME280;50592;52.958;-7.470;2022-12-29T07:07:47;98248.22;;;4.18;100.00
64253;BME280;50592;52.958;-7.470;2022-12-29T07:10:12;98254.44;;;4.17;100.00
64253;BME280;50592;52.958;-7.470;2022-12-29T07:12:38;98254.44;;;4.17;100.00
64253;BME280;50592;52.958;-7.470;2022-12-29T07:15:04;98250.66;;;4.11;100.00
64253;BME280;50592;52.958;-7.470;2022-12-29T07:17:30;98250.97;;;4.08;100.00
64253;BME280;50592;52.958;-7.470;2022-12-29T07:19:56;98259.78;;;4.07;100.00
64253;BME280;50592;52.958;-7.470;2022-12-29T07:22:22;98253.88;;;4.05;100.00
64253;BME280;50592;52.958;-7.470;2022-12-29T07:24:47;98254.19;;;4.02;100.00
64253;BME280;50592;52.958;-7.470;2022-12-29T07:27:13;98254.03;;;4.03;100.00
64253;BME280;50592;52.958;-7.470;2022-12-29T07:29:39;98256.34;;;4.06;100.00
64253;BME280;50592;52.958;-7.470;2022-12-29T07:32:05;98262.41;;;4.07;100.00
64253;BME280;50592;52.958;-7.470;2022-12-29T07:34:31;98264.72;;;4.10;100.00
64253;BME280;50592;52.958;-7.470;2022-12-29T07:36:56;98266.03;;;4.14;100.00
64253;BME280;50592;52.958;-7.470;2022-12-29T07:39:22;98280.75;;;4.15;100.00
64253;BME280;50592;52.958;-7.470;2022-12-29T07:41:48;98276.69;;;4.21;100.00
64253;BME280;50592;52.958;-7.470;2022-12-29T07:44:18;98297.28;;;4.24;100.00
64253;BME280;50592;52.958;-7.470;2022-12-29T07:47:11;98295.50;;;4.25;100.00
64253;BME280;50592;52.958;-7.470;2022-12-29T07:49:37;98295.50;;;4.25;100.00
64253;BME280;50592;52.958;-7.470;2022-12-29T07:52:03;98295.19;;;4.28;100.00
64253;BME280;50592;52.958;-7.470;2022-12-29T07:54:28;98280.00;;;4.31;100.00
64253;BME280;50592;52.958;-7.470;2022-12-29T07:56:54;98284.41;;;4.31;100.00
64253;BME280;50592;52.958;-7.470;2022-12-29T07:59:20;98290.47;;;4.31;100.00
64253;BME280;50592;52.958;-7.470;2022-12-29T08:01:46;98279.84;;;4.33;100.00
64253;BME280;50592;52.958;-7.470;2022-12-29T08:04:12;98287.38;;;4.36;100.00
64253;BME280;50592;52.958;-7.470;2022-12-29T08:06:38;98289.16;;;4.36;100.00
64253;BME280;50592;52.958;-7.470;2022-12-29T08:09:04;98292.75;;;4.34;100.00
64253;BME280;50592;52.958;-7.470;2022-12-29T08:11:29;98294.88;;;4.31;100.00
64253;BME280;50592;52.958;-7.470;2022-12-29T08:13:55;98289.78;;;4.29;100.00
64253;BME280;50592;52.958;-7.470;2022-12-29T08:16:21;98290.25;;;4.25;100.00
64253;BME280;50592;52.958;-7.470;2022-12-29T08:18:47;98303.13;;;4.18;100.00
64253;BME280;50592;52.958;-7.470;2022-12-29T08:21:12;98311.75;;;4.10;100.00
64253;BME280;50592;52.958;-7.470;2022-12-29T08:23:38;98310.44;;;4.06;100.00
64253;BME280;50592;52.958;-7.470;2022-12-29T08:26:05;98314.84;;;4.05;100.00
64253;BME280;50592;52.958;-7.470;2022-12-29T08:28:32;98315.38;;;4.09;100.00
64253;BME280;50592;52.958;-7.470;2022-12-29T08:30:59;98327.19;;;4.21;100.00
64253;BME280;50592;52.958;-7.470;2022-12-29T08:33:26;98332.94;;;4.33;100.00
64253;BME280;50592;52.958;-7.470;2022-12-29T08:35:58;98335.63;;;4.42;100.00
64253;BME280;50592;52.958;-7.470;2022-12-29T08:38:24;98325.81;;;4.44;100.00
64253;BME280;50592;52.958;-7.470;2022-12-29T08:40:51;98354.59;;;4.44;100.00
64253;BME280;50592;52.958;-7.470;2022-12-29T08:43:17;98358.47;;;4.40;100.00
64253;BME280;50592;52.958;-7.470;2022-12-29T08:45:42;98353.56;;;4.37;100.00
64253;BME280;50592;52.958;-7.470;2022-12-29T08:48:08;98358.47;;;4.31;100.00
64253;BME280;50592;52.958;-7.470;2022-12-29T08:50:34;98368.56;;;4.26;100.00
64253;BME280;50592;52.958;-7.470;2022-12-29T08:53:00;98359.41;;;4.22;100.00
64253;BME280;50592;52.958;-7.470;2022-12-29T08:55:27;98367.84;;;4.16;100.00
64253;BME280;50592;52.958;-7.470;2022-12-29T08:57:53;98346.13;;;4.15;100.00
64253;BME280;50592;52.958;-7.470;2022-12-29T09:00:20;98339.06;;;4.16;100.00
64253;BME280;50592;52.958;-7.470;2022-12-29T09:02:46;98364.13;;;4.18;100.00
64253;BME280;50592;52.958;-7.470;2022-12-29T09:05:12;98330.13;;;4.18;100.00
64253;BME280;50592;52.958;-7.470;2022-12-29T09:07:38;98341.38;;;4.19;100.00
64253;BME280;50592;52.958;-7.470;2022-12-29T09:10:04;98352.19;;;4.24;100.00
64253;BME280;50592;52.958;-7.470;2022-12-29T09:12:30;98364.97;;;4.27;100.00
64253;BME280;50592;52.958;-7.470;2022-12-29T09:14:56;98378.03;;;4.27;100.00
64253;BME280;50592;52.958;-7.470;2022-12-29T09:17:22;98382.94;;;4.22;100.00
64253;BME280;50592;52.958;-7.470;2022-12-29T09:20:06;98384.19;;;4.18;100.00
64253;BME280;50592;52.958;-7.470;2022-12-29T09:22:34;98388.75;;;4.16;100.00
64253;BME280;50592;52.958;-7.470;2022-12-29T09:25:00;98388.59;;;4.17;100.00
64253;BME280;50592;52.958;-7.470;2022-12-29T09:27:26;98396.97;;;4.21;100.00
64253;BME280;50592;52.958;-7.470;2022-12-29T09:29:52;98389.50;;;4.26;100.00
64253;BME280;50592;52.958;-7.470;2022-12-29T09:32:18;98397.53;;;4.33;100.00
64253;BME280;50592;52.958;-7.470;2022-12-29T09:34:43;98394.94;;;4.33;100.00
64253;BME280;50592;52.958;-7.470;2022-12-29T09:37:09;98399.03;;;4.36;100.00
64253;BME280;50592;52.958;-7.470;2022-12-29T09:39:35;98408.97;;;4.32;100.00
64253;BME280;50592;52.958;-7.470;2022-12-29T09:47:22;98424.50;;;4.33;100.00
64253;BME280;50592;52.958;-7.470;2022-12-29T09:49:54;98434.81;;;4.35;100.00
64253;BME280;50592;52.958;-7.470;2022-12-29T09:52:23;98424.19;;;4.37;100.00
64253;BME280;50592;52.958;-7.470;2022-12-29T10:00:14;98438.97;;;4.46;100.00
64253;BME280;50592;52.958;-7.470;2022-12-29T10:03:04;98436.56;;;4.53;100.00
64253;BME280;50592;52.958;-7.470;2022-12-29T10:16:11;98468.09;;;4.78;100.00
64253;BME280;50592;52.958;-7.470;2022-12-29T10:24:04;98488.13;;;4.95;100.00
64253;BME280;50592;52.958;-7.470;2022-12-29T10:26:41;98483.75;;;5.04;100.00
64253;BME280;50592;52.958;-7.470;2022-12-29T10:31:54;98498.22;;;5.17;100.00
64253;BME280;50592;52.958;-7.470;2022-12-29T10:34:34;98512.47;;;5.22;100.00
64253;BME280;50592;52.958;-7.470;2022-12-29T10:37:19;98511.84;;;5.29;100.00
64253;BME280;50592;52.958;-7.470;2022-12-29T10:39:52;98530.69;;;5.32;100.00
64253;BME280;50592;52.958;-7.470;2022-12-29T10:42:44;98536.59;;;5.34;100.00
64253;BME280;50592;52.958;-7.470;2022-12-29T10:45:16;98565.41;;;5.34;100.00
64253;BME280;50592;52.958;-7.470;2022-12-29T10:48:41;98542.31;;;5.30;100.00
64253;BME280;50592;52.958;-7.470;2022-12-29T10:50:50;98550.28;;;5.20;100.00
64253;BME280;50592;52.958;-7.470;2022-12-29T10:53:20;98550.22;;;5.12;100.00
64253;BME280;50592;52.958;-7.470;2022-12-29T10:55:47;98556.78;;;5.07;100.00
64253;BME280;50592;52.958;-7.470;2022-12-29T10:58:14;98558.25;;;5.10;100.00
64253;BME280;50592;52.958;-7.470;2022-12-29T11:00:52;98556.63;;;5.09;100.00
64253;BME280;50592;52.958;-7.470;2022-12-29T11:08:45;98551.53;;;5.07;100.00
64253;BME280;50592;52.958;-7.470;2022-12-29T11:11:23;98539.44;;;5.15;100.00
64253;BME280;50592;52.958;-7.470;2022-12-29T11:13:57;98552.22;;;5.18;100.00
64253;BME280;50592;52.958;-7.470;2022-12-29T11:16:31;98567.28;;;5.16;100.00
64253;BME280;50592;52.958;-7.470;2022-12-29T11:18:58;98572.38;;;5.17;100.00
64253;BME280;50592;52.958;-7.470;2022-12-29T11:21:31;98566.97;;;5.19;100.00
64253;BME280;50592;52.958;-7.470;2022-12-29T11:24:17;98572.22;;;5.19;100.00
64253;BME280;50592;52.958;-7.470;2022-12-29T11:26:44;98575.78;;;5.18;100.00
64253;BME280;50592;52.958;-7.470;2022-12-29T11:29:17;98579.44;;;5.25;100.00
64253;BME280;50592;52.958;-7.470;2022-12-29T11:31:47;98581.09;;;5.26;100.00
64253;BME280;50592;52.958;-7.470;2022-12-29T11:34:34;98586.84;;;5.30;100.00
64253;BME280;50592;52.958;-7.470;2022-12-29T11:40:18;98581.66;;;5.38;100.00
64253;BME280;50592;52.958;-7.470;2022-12-29T11:45:48;98588.72;;;5.54;100.00
64253;BME280;50592;52.958;-7.470;2022-12-29T11:48:20;98595.00;;;5.62;100.00
64253;BME280;50592;52.958;-7.470;2022-12-29T11:50:57;98593.88;;;5.73;100.00
64253;BME280;50592;52.958;-7.470;2022-12-29T11:56:37;98593.78;;;5.91;100.00
64253;BME280;50592;52.958;-7.470;2022-12-29T12:02:35;98601.00;;;5.89;100.00
64253;BME280;50592;52.958;-7.470;2022-12-29T12:05:13;98594.44;;;5.93;100.00
64253;BME280;50592;52.958;-7.470;2022-12-29T12:07:43;98595.41;;;5.92;100.00
64253;BME280;50592;52.958;-7.470;2022-12-29T12:10:19;98586.72;;;5.91;100.00
64253;BME280;50592;52.958;-7.470;2022-12-29T12:12:53;98598.03;;;5.92;100.00
64253;BME280;50592;52.958;-7.470;2022-12-29T12:15:39;98612.00;;;6.01;100.00
64253;BME280;50592;52.958;-7.470;2022-12-29T12:18:13;98617.97;;;6.11;100.00
64253;BME280;50592;52.958;-7.470;2022-12-29T12:20:46;98621.44;;;6.28;100.00
64253;BME280;50592;52.958;-7.470;2022-12-29T12:29:56;98624.09;;;6.70;100.00
64253;BME280;50592;52.958;-7.470;2022-12-29T12:32:10;98644.28;;;6.86;100.00
64253;BME280;50592;52.958;-7.470;2022-12-29T12:34:42;98637.03;;;6.97;100.00
64253;BME280;50592;52.958;-7.470;2022-12-29T12:45:42;98647.41;;;6.81;100.00
64253;BME280;50592;52.958;-7.470;2022-12-29T13:15:12;98668.53;;;4.44;100.00
64253;BME280;50592;52.958;-7.470;2022-12-29T13:17:50;98670.47;;;4.42;100.00
64253;BME280;50592;52.958;-7.470;2022-12-29T13:20:43;98665.66;;;4.37;100.00
64253;BME280;50592;52.958;-7.470;2022-12-29T13:23:23;98669.13;;;4.38;100.00
64253;BME280;50592;52.958;-7.470;2022-12-29T13:25:55;98686.97;;;4.42;100.00
64253;BME280;50592;52.958;-7.470;2022-12-29T13:28:48;98676.16;;;4.55;100.00
64253;BME280;50592;52.958;-7.470;2022-12-29T13:36:37;98691.41;;;4.78;100.00
64253;BME280;50592;52.958;-7.470;2022-12-29T13:41:44;98684.72;;;5.02;100.00
64253;BME280;50592;52.958;-7.470;2022-12-29T13:44:18;98682.00;;;5.12;100.00
64253;BME280;50592;52.958;-7.470;2022-12-29T13:46:46;98680.25;;;5.21;100.00
64253;BME280;50592;52.958;-7.470;2022-12-29T13:49:17;98683.47;;;5.33;100.00
64253;BME280;50592;52.958;-7.470;2022-12-29T13:51:48;98683.84;;;5.38;100.00
64253;BME280;50592;52.958;-7.470;2022-12-29T13:54:26;98678.78;;;5.45;100.00
64253;BME280;50592;52.958;-7.470;2022-12-29T14:00:13;98677.34;;;5.51;100.00
64253;BME280;50592;52.958;-7.470;2022-12-29T14:07:48;98693.09;;;5.59;100.00
64253;BME280;50592;52.958;-7.470;2022-12-29T14:10:30;98697.53;;;5.58;100.00
64253;BME280;50592;52.958;-7.470;2022-12-29T14:13:04;98696.53;;;5.59;100.00
64253;BME280;50592;52.958;-7.470;2022-12-29T14:15:32;98709.97;;;5.56;100.00
64253;BME280;50592;52.958;-7.470;2022-12-29T14:18:25;98701.44;;;5.54;100.00
64253;BME280;50592;52.958;-7.470;2022-12-29T14:21:09;98705.19;;;5.52;100.00
64253;BME280;50592;52.958;-7.470;2022-12-29T14:23:43;98696.66;;;5.50;100.00
64253;BME280;50592;52.958;-7.470;2022-12-29T14:26:36;98713.28;;;5.40;100.00
64253;BME280;50592;52.958;-7.470;2022-12-29T14:31:50;98721.72;;;5.26;100.00
64253;BME280;50592;52.958;-7.470;2022-12-29T14:42:20;98710.66;;;5.14;100.00
64253;BME280;50592;52.958;-7.470;2022-12-29T14:44:50;98726.06;;;5.17;100.00
64253;BME280;50592;52.958;-7.470;2022-12-29T14:47:37;98723.16;;;5.20;100.00
64253;BME280;50592;52.958;-7.470;2022-12-29T14:55:55;98743.28;;;5.19;100.00
64253;BME280;50592;52.958;-7.470;2022-12-29T15:01:26;98745.69;;;5.13;100.00
64253;BME280;50592;52.958;-7.470;2022-12-29T15:03:56;98739.94;;;5.09;100.00
64253;BME280;50592;52.958;-7.470;2022-12-29T15:06:29;98742.41;;;5.11;100.00
64253;BME280;50592;52.958;-7.470;2022-12-29T15:09:06;98744.03;;;5.12;100.00
64253;BME280;50592;52.958;-7.470;2022-12-29T15:14:02;98750.03;;;5.04;100.00
64253;BME280;50592;52.958;-7.470;2022-12-29T15:16:33;98757.50;;;4.99;100.00
64253;BME280;50592;52.958;-7.470;2022-12-29T15:19:03;98760.88;;;4.91;100.00
64253;BME280;50592;52.958;-7.470;2022-12-29T15:21:33;98771.34;;;4.91;100.00
64253;BME280;50592;52.958;-7.470;2022-12-29T15:24:00;98768.72;;;4.91;100.00
64253;BME280;50592;52.958;-7.470;2022-12-29T15:26:41;98753.56;;;4.94;100.00
64253;BME280;50592;52.958;-7.470;2022-12-29T15:29:36;98751.09;;;4.93;100.00
64253;BME280;50592;52.958;-7.470;2022-12-29T15:32:23;98750.84;;;4.86;100.00
64253;BME280;50592;52.958;-7.470;2022-12-29T15:34:55;98746.06;;;4.81;100.00
64253;BME280;50592;52.958;-7.470;2022-12-29T15:37:24;98741.97;;;4.79;100.00
64253;BME280;50592;52.958;-7.470;2022-12-29T15:39:52;98739.34;;;4.79;100.00
64253;BME280;50592;52.958;-7.470;2022-12-29T15:45:18;98738.13;;;4.73;100.00
64253;BME280;50592;52.958;-7.470;2022-12-29T15:47:46;98750.41;;;4.72;100.00
64253;BME280;50592;52.958;-7.470;2022-12-29T15:50:24;98754.13;;;4.70;100.00
64253;BME280;50592;52.958;-7.470;2022-12-29T15:52:52;98754.56;;;4.65;100.00
64253;BME280;50592;52.958;-7.470;2022-12-29T15:55:38;98756.25;;;4.66;100.00
64253;BME280;50592;52.958;-7.470;2022-12-29T15:58:18;98755.69;;;4.63;100.00
64253;BME280;50592;52.958;-7.470;2022-12-29T16:01:01;98763.09;;;4.67;100.00